Terminal Aerodrome Forecast
Issued by NWS

Home | Current Version | Previous Version | Text Only | Print | Product List | Glossary On
Versions: 1 2 3 4 5 6 7 8 9 10 11 12 13 14 15 16 17
000
FTUS45 KTWC 281739
TAFOLS
TAF
KOLS 281739Z 2818/2918 16004KT P6SM SCT070 SCT300
     FM282200 08009KT P6SM VCSH SCT090 SCT300
     FM290200 11008KT P6SM SCT080 BKN120
     FM290700 VRB04KT P6SM SCT250=

USA.gov is the U.S. government's official web portal to all federal, state and local government web resources and services.